Alakanuk, AK (99554)

12:08 AM AKDT on July 30, 2016 (GMT -0800)
Mountain Village Airport | | Change Station

Elev 338 ft 62.09 °N, 163.69 °W | Updated 12 minutes ago

Overcast
Overcast
53 °F
Feels Like 53 °F
N
13
Wind Variable Wind from SSW

Today
High -- | Low -- °F
--% Chance of Precip.
Yesterday
High -- | Low -- °F
Precip. -- in
Pressure 29.95 in
Visibility 10.0 miles
Clouds Overcast 600 ft
Dew Point 52 °F
Humidity 96%
Rainfall 0.05 in
Snow Depth Not available.
6:14 AM 11:52 PM
Waning Crescent, 15% visible
METAR PAMO 300756Z AUTO 20011KT 10SM OVC006 12/11 A2990 RMK AO2 RAE16 CIG 004V008 SLP140 P0000 T01170111
Pressure 29.95 in
Visibility 10.0 miles
Clouds Overcast 600 ft
Dew Point 52 °F
Humidity 96%
Rainfall 0.05 in
Snow Depth Not available.
6:14 AM 11:52 PM
Waning Crescent, 15% visible
METAR PAMO 300756Z AUTO 20011KT 10SM OVC006 12/11 A2990 RMK AO2 RAE16 CIG 004V008 SLP140 P0000 T01170111

10-Day Weather Forecast

Almanac

Astronomy

Jul. 30, 2016 Rise Set
Actual Time
Civil Twilight
Nautical Twilight
Astronomical Twilight
Moon
Length of Visible Light
Length of Day
Tomorrow will be .
, % of the Moon is Illuminated

Today's Extremes

State Highs State Lows

Community

WunderPhotos

Upload Photos

1,928,508 photos uploaded!

WunderBlog® & News

Nearby

Air Quality

  Air Quality AQ Index Pollutant
Not available.

Snow Depth

Station Depth Elevation

Earthquake Activity

City Distance Mag. Time & Date
Minimum magnitude displayed is 2.5.

Coastal Water Temperatures

Place Temperature

Stations

Nearby Weather Stations

Station Location Temp. Windchill Dew Point Humidity Wind Precip. Elev Updated Type
                   

Watches & Warnings

There are currently no watches in effect.